Bookmark and Share
Track history (hours):
 

Taza Mas

More information available from US FCC via Universal Licensing System and Coast Guard Vessel Documentation Center.

Last reported at 2013-Oct-01 21:33 UTC. Time now 2014-Apr-20 05:43 UTC.
Position N 39°38' W 074°04'.
Warning: this ship's position is months out of date.

Length 28 m.

Type: Sailing vessel. MMSI: 338046997.

NotesDate/timePositionNaut miles runAvg speedWind from/ knotsBaromVisibWave heightAir tempDewpointWater temp
2013-Oct-01 21:33N 39°38' W 074°04'10 9.9
2013-Oct-01 20:33N 39°48' W 074°02'47 9.3
2013-Oct-01 15:30N 40°35' W 074°02'1010.0
2013-Oct-01 14:29N 40°45' W 074°01'0 0.0
2013-Oct-01 13:24N 40°45' W 074°01'0 0.0
2013-Oct-01 12:04N 40°45' W 074°01'0 0.0
2013-Oct-01 11:27N 40°45' W 074°01'0 0.0
2013-Oct-01 10:31N 40°45' W 074°01'0 0.0
2013-Oct-01 09:31N 40°45' W 074°01'0 0.0
2013-Oct-01 08:22N 40°45' W 074°01'0 0.0
2013-Oct-01 07:12N 40°45' W 074°01'0 0.0
2013-Oct-01 06:30N 40°45' W 074°01'0 0.0
2013-Oct-01 05:12N 40°45' W 074°01'0 0.0
2013-Oct-01 04:28N 40°45' W 074°01'0 0.0
2013-Oct-01 03:31N 40°45' W 074°01'0 0.0
2013-Oct-01 02:26N 40°45' W 074°01'0 0.0
2013-Sep-30 22:14N 40°45' W 074°01'0 0.0
2013-Sep-30 21:31N 40°45' W 074°01'0 0.0
2013-Sep-30 12:15N 40°45' W 074°01'0 0.0
2013-Sep-30 11:09N 40°45' W 074°01'0 0.0
2013-Sep-30 10:32N 40°45' W 074°01'0 0.0
2013-Sep-30 09:33N 40°45' W 074°01'0 0.0
2013-Sep-30 00:30N 40°45' W 074°01'0 0.0
2013-Sep-29 23:28N 40°45' W 074°01'0 0.0
2013-Sep-29 22:22N 40°45' W 074°01'  
2013-Sep-26 12:11N 40°45' W 074°01'3 0.1
2013-Sep-24 23:33N 40°42' W 074°01'61 2.0
2013-Sep-23 16:33N 41°06' W 072°46'1110.7
2013-Sep-23 15:34N 41°09' W 072°33'1111.4
2013-Sep-23 14:34N 41°11' W 072°18'1110.7
2013-Sep-23 13:34N 41°14' W 072°04'1010.0
2013-Sep-23 12:33N 41°16' W 071°51'10 9.6
2013-Sep-23 11:33N 41°19' W 071°39'9 9.3
2013-Sep-23 10:34N 41°22' W 071°27'9 0.4
2013-Sep-22 10:33N 41°29' W 071°19'0 0.0
2013-Sep-22 03:03N 41°29' W 071°19'  

Dump ship's entire track history

sailing weather and tide predictions

Taza Mas — WCY7704 — position and weather